地図

経路データ

SID SEASON NUMBER BASIN SUBBASIN NAME ISO_TIME NATURE LAT LON WMO_WIND WMO_PRES WMO_AGENCY TRACK_TYPE DIST2LAND LANDFALL IFLAG USA_AGENCY USA_ATCF_ID USA_LAT USA_LON USA_RECORD USA_STATUS USA_WIND USA_PRES USA_SSHS USA_R34_NE USA_R34_SE USA_R34_SW USA_R34_NW USA_R50_NE USA_R50_SE USA_R50_SW USA_R50_NW USA_R64_NE USA_R64_SE USA_R64_SW USA_R64_NW USA_POCI USA_ROCI USA_RMW USA_EYE TOKYO_LAT TOKYO_LON TOKYO_GRADE TOKYO_WIND TOKYO_PRES TOKYO_R50_DIR TOKYO_R50_LONG TOKYO_R50_SHORT TOKYO_R30_DIR TOKYO_R30_LONG TOKYO_R30_SHORT TOKYO_LAND CMA_LAT CMA_LON CMA_CAT CMA_WIND CMA_PRES HKO_LAT HKO_LON HKO_CAT HKO_WIND HKO_PRES NEWDELHI_LAT NEWDELHI_LON NEWDELHI_GRADE NEWDELHI_WIND NEWDELHI_PRES NEWDELHI_CI NEWDELHI_DP NEWDELHI_POCI REUNION_LAT REUNION_LON REUNION_TYPE REUNION_WIND REUNION_PRES REUNION_TNUM REUNION_CI REUNION_RMW REUNION_R34_NE REUNION_R34_SE REUNION_R34_SW REUNION_R34_NW REUNION_R50_NE REUNION_R50_SE REUNION_R50_SW REUNION_R50_NW REUNION_R64_NE REUNION_R64_SE REUNION_R64_SW REUNION_R64_NW BOM_LAT BOM_LON BOM_TYPE BOM_WIND BOM_PRES BOM_TNUM BOM_CI BOM_RMW BOM_R34_NE BOM_R34_SE BOM_R34_SW BOM_R34_NW BOM_R50_NE BOM_R50_SE BOM_R50_SW BOM_R50_NW BOM_R64_NE BOM_R64_SE BOM_R64_SW BOM_R64_NW BOM_ROCI BOM_POCI BOM_EYE BOM_POS_METHOD BOM_PRES_METHOD NADI_LAT NADI_LON NADI_CAT NADI_WIND NADI_PRES WELLINGTON_LAT WELLINGTON_LON WELLINGTON_WIND WELLINGTON_PRES DS824_LAT DS824_LON DS824_STAGE DS824_WIND DS824_PRES TD9636_LAT TD9636_LON TD9636_STAGE TD9636_WIND TD9636_PRES TD9635_LAT TD9635_LON TD9635_WIND TD9635_PRES TD9635_ROCI NEUMANN_LAT NEUMANN_LON NEUMANN_CLASS NEUMANN_WIND NEUMANN_PRES MLC_LAT MLC_LON MLC_CLASS MLC_WIND MLC_PRES USA_GUST BOM_GUST BOM_GUST_PER REUNION_GUST REUNION_GUST_PER USA_SEAHGT USA_SEARAD_NE USA_SEARAD_SE USA_SEARAD_SW USA_SEARAD_NW STORM_SPEED STORM_DIR
1943205N22124 1943 45 WP MM NOT_NAMED 1943-07-23 21:00:00 NR 22.2000 124.000 main 285 281 __________O___ -1 22.2000 124.000 7 3 26
1943205N22124 1943 45 WP MM NOT_NAMED 1943-07-24 00:00:00 NR 22.3234 124.067 main 290 287 __________P___ -1 22.3234 124.067 7 3 27
1943205N22124 1943 45 WP MM NOT_NAMED 1943-07-24 03:00:00 NR 22.4475 124.137 main 287 284 __________P___ -1 22.4475 124.137 7 3 29
1943205N22124 1943 45 WP MM NOT_NAMED 1943-07-24 06:00:00 NR 22.5728 124.214 main 292 292 __________P___ -1 22.5728 124.214 7 3 31
1943205N22124 1943 45 WP MM NOT_NAMED 1943-07-24 09:00:00 NR 22.7000 124.300 main 300 298 __________O___ -1 22.7000 124.300 7 3 33
1943205N22124 1943 45 WP MM NOT_NAMED 1943-07-24 12:00:00 NR 22.8291 124.397 main 308 307 __________P___ -1 22.8291 124.397 7 3 36
1943205N22124 1943 45 WP MM NOT_NAMED 1943-07-24 15:00:00 NR 22.9575 124.500 main 313 313 __________P___ -1 22.9575 124.500 7 3 37
1943205N22124 1943 45 WP MM NOT_NAMED 1943-07-24 18:00:00 NR 23.0822 124.603 main 315 315 __________P___ -1 23.0822 124.603 7 3 38
1943205N22124 1943 45 WP MM NOT_NAMED 1943-07-24 21:00:00 NR 23.2000 124.700 main 319 314 __________O___ -1 23.2000 124.700 7 3 35
1943205N22124 1943 45 WP MM NOT_NAMED 1943-07-25 00:00:00 NR 23.3112 124.778 main 323 319 __________P___ -1 23.3112 124.778 7 3 33
1943205N22124 1943 45 WP MM NOT_NAMED 1943-07-25 03:00:00 NR 23.4149 124.850 main 328 324 __________P___ -1 23.4149 124.850 7 2 34
1943205N22124 1943 45 WP MM NOT_NAMED 1943-07-25 06:00:00 NR 23.5112 124.922 main 324 324 __________P___ -1 23.5112 124.922 7 2 37
1943205N22124 1943 45 WP MM NOT_NAMED 1943-07-25 09:00:00 NR 23.6000 125.000 main 330 330 __________O___ -1 23.6000 125.000 7 2 41
1943205N22124 1943 45 WP MM NOT_NAMED 1943-07-25 12:00:00 NR 23.6821 125.085 main 336 336 __________P___ -1 23.6821 125.085 7 2 46
1943205N22124 1943 45 WP MM NOT_NAMED 1943-07-25 15:00:00 NR 23.7574 125.178 main 343 343 __________P___ -1 23.7574 125.178 7 2 51
1943205N22124 1943 45 WP MM NOT_NAMED 1943-07-25 18:00:00 NR 23.8290 125.282 main 353 351 __________P___ -1 23.8290 125.282 7 2 55
1943205N22124 1943 45 WP MM NOT_NAMED 1943-07-25 21:00:00 NR 23.9000 125.400 main 361 361 __________O___ -1 23.9000 125.400 7 3 59
1943205N22124 1943 45 WP MM NOT_NAMED 1943-07-26 00:00:00 NR 23.9750 125.540 main 369 369 __________P___ -1 23.9750 125.540 7 3 61
1943205N22124 1943 45 WP MM NOT_NAMED 1943-07-26 03:00:00 NR 24.0501 125.692 main 387 387 __________P___ -1 24.0501 125.692 7 3 62
1943205N22124 1943 45 WP MM NOT_NAMED 1943-07-26 06:00:00 NR 24.1250 125.849 main 397 397 __________P___ -1 24.1250 125.849 7 3 62
1943205N22124 1943 45 WP MM NOT_NAMED 1943-07-26 09:00:00 NR 24.2000 126.000 main 413 413 __________O___ -1 24.2000 126.000 7 2 64
1943205N22124 1943 45 WP MM NOT_NAMED 1943-07-26 12:00:00 NR 24.2086 126.037 main 413 413 __________P___ -1 24.2086 126.037 7 1 70
1943205N22124 1943 45 WP MM NOT_NAMED 1943-07-26 15:00:00 NR 24.2276 126.082 main 423 421 __________P___ -1 24.2276 126.082 7 2 58
1943205N22124 1943 45 WP MM NOT_NAMED 1943-07-26 18:00:00 NR 24.3079 126.210 main 431 431 __________P___ -1 24.3079 126.210 7 5 54
1943205N22124 1943 45 WP MM NOT_NAMED 1943-07-26 21:00:00 NR 24.5000 126.500 main 457 457 __________O___ -1 24.5000 126.500 7 10 56
1943205N22124 1943 45 WP MM NOT_NAMED 1943-07-27 00:00:00 NR 24.8511 127.102 main 513 513 __________P___ -1 24.8511 127.102 7 15 57
1943205N22124 1943 45 WP MM NOT_NAMED 1943-07-27 03:00:00 NR 25.3125 127.862 main 594 594 __________P___ -1 25.3125 127.862 7 17 55
1943205N22124 1943 45 WP MM NOT_NAMED 1943-07-27 06:00:00 NR 25.8420 128.667 main 612 528 __________P___ -1 25.8420 128.667 7 18 52
1943205N22124 1943 45 WP MM NOT_NAMED 1943-07-27 09:00:00 NR 26.4000 129.400 main 528 464 __________O___ -1 26.4000 129.400 7 16 46
1943205N22124 1943 45 WP MM NOT_NAMED 1943-07-27 12:00:00 NR 26.9596 129.958 main 451 391 __________P___ -1 26.9596 129.958 7 15 39
1943205N22124 1943 45 WP MM NOT_NAMED 1943-07-27 15:00:00 NR 27.5360 130.417 main 391 323 __________P___ -1 27.5360 130.417 7 13 32
1943205N22124 1943 45 WP MM NOT_NAMED 1943-07-27 18:00:00 NR 28.0945 130.767 main 323 269 __________P___ -1 28.0945 130.767 7 12 26
1943205N22124 1943 45 WP MM NOT_NAMED 1943-07-27 21:00:00 NR 28.6000 131.000 main 269 226 __________O___ -1 28.6000 131.000 7 10 20
1943205N22124 1943 45 WP MM NOT_NAMED 1943-07-28 00:00:00 NR 29.0025 131.149 main 226 195 __________P___ -1 29.0025 131.149 7 8 12
1943205N22124 1943 45 WP MM NOT_NAMED 1943-07-28 03:00:00 NR 29.3514 131.182 main 184 150 __________P___ -1 29.3514 131.182 7 7 358
1943205N22124 1943 45 WP MM NOT_NAMED 1943-07-28 06:00:00 NR 29.6746 131.123 main 150 115 __________P___ -1 29.6746 131.123 7 7 346
1943205N22124 1943 45 WP MM NOT_NAMED 1943-07-28 09:00:00 NR 30.0000 131.000 main 115 69 __________O___ -1 30.0000 131.000 7 8 344
1943205N22124 1943 45 WP MM NOT_NAMED 1943-07-28 12:00:00 NR 30.4246 130.875 main 69 22 __________P___ -1 30.4246 130.875 7 9 343
1943205N22124 1943 45 WP MM NOT_NAMED 1943-07-28 15:00:00 NR 30.8474 130.692 main 22 9 __________P___ -1 30.8474 130.692 7 9 336
1943205N22124 1943 45 WP MM NOT_NAMED 1943-07-28 18:00:00 NR 31.2214 130.463 main 9 0 __________P___ -1 31.2214 130.463 7 8 327
1943205N22124 1943 45 WP MM NOT_NAMED 1943-07-28 21:00:00 NR 31.5000 130.200 main 9 9 __________O___ -1 31.5000 130.200 7 6 311
1943205N22124 1943 45 WP MM NOT_NAMED 1943-07-29 00:00:00 NR 31.6259 129.911 main 36 36 __________P___ -1 31.6259 129.911 7 5 287
1943205N22124 1943 45 WP MM NOT_NAMED 1943-07-29 03:00:00 NR 31.6554 129.598 main 57 57 __________P___ -1 31.6554 129.598 7 5 271
1943205N22124 1943 45 WP MM NOT_NAMED 1943-07-29 06:00:00 NR 31.6322 129.286 main 87 87 __________P___ -1 31.6322 129.286 7 5 264
1943205N22124 1943 45 WP MM NOT_NAMED 1943-07-29 09:00:00 NR 31.6000 129.000 main 115 115 __________O___ -1 31.6000 129.000 7 4 268
1943205N22124 1943 45 WP MM NOT_NAMED 1943-07-29 12:00:00 NR 31.6195 128.836 main 134 134 __________P___ -1 31.6195 128.836 7 3 279
1943205N22124 1943 45 WP MM NOT_NAMED 1943-07-29 15:00:00 NR 31.6402 128.689 main 143 143 __________P___ -1 31.6402 128.689 7 3 279
1943205N22124 1943 45 WP MM NOT_NAMED 1943-07-29 18:00:00 NR 31.6659 128.498 main 150 150 __________P___ -1 31.6659 128.498 7 4 278
1943205N22124 1943 45 WP MM NOT_NAMED 1943-07-29 21:00:00 NR 31.7000 128.200 main 173 173 __________O___ -1 31.7000 128.200 7 7 272
1943205N22124 1943 45 WP MM NOT_NAMED 1943-07-30 00:00:00 NR 31.6880 127.681 main 196 173 __________P___ -1 31.6880 127.681 7 10 269
1943205N22124 1943 45 WP MM NOT_NAMED 1943-07-30 03:00:00 NR 31.6905 127.057 main 173 167 __________P___ -1 31.6905 127.057 7 11 273
1943205N22124 1943 45 WP MM NOT_NAMED 1943-07-30 06:00:00 NR 31.7474 126.405 main 167 149 __________P___ -1 31.7474 126.405 7 11 281
1943205N22124 1943 45 WP MM NOT_NAMED 1943-07-30 09:00:00 NR 31.9000 125.800 main 152 143 __________O___ -1 31.9000 125.800 7 10 295
1943205N22124 1943 45 WP MM NOT_NAMED 1943-07-30 12:00:00 NR 32.1823 125.312 main 145 143 __________P___ -1 32.1823 125.312 7 10 311
1943205N22124 1943 45 WP MM NOT_NAMED 1943-07-30 15:00:00 NR 32.5641 124.882 main 144 144 __________P___ -1 32.5641 124.882 7 11 321
1943205N22124 1943 45 WP MM NOT_NAMED 1943-07-30 18:00:00 NR 33.0139 124.511 main 161 159 __________P___ -1 33.0139 124.511 7 11 329
1943205N22124 1943 45 WP MM NOT_NAMED 1943-07-30 21:00:00 NR 33.5000 124.200 main 186 186 __________O___ -1 33.5000 124.200 7 11 332
1943205N22124 1943 45 WP MM NOT_NAMED 1943-07-31 00:00:00 NR 33.9586 123.906 main 226 226 __________P___ -1 33.9586 123.906 7 10 335
1943205N22124 1943 45 WP MM NOT_NAMED 1943-07-31 03:00:00 NR 34.4470 123.673 main 238 237 __________P___ -1 34.4470 123.673 7 11 342
1943205N22124 1943 45 WP MM NOT_NAMED 1943-07-31 06:00:00 NR 34.9619 123.503 main 227 175 __________P___ -1 34.9619 123.503 7 11 348
1943205N22124 1943 45 WP MM NOT_NAMED 1943-07-31 09:00:00 NR 35.5000 123.400 main 175 128 __________O___ -1 35.5000 123.400 7 11 354
1943205N22124 1943 45 WP MM NOT_NAMED 1943-07-31 12:00:00 NR 36.0576 123.363 main 119 86 __________P___ -1 36.0576 123.363 7 11 360
1943205N22124 1943 45 WP MM NOT_NAMED 1943-07-31 15:00:00 NR 36.6302 123.378 main 86 70 __________P___ -1 36.6302 123.378 7 12 3
1943205N22124 1943 45 WP MM NOT_NAMED 1943-07-31 18:00:00 NR 37.2127 123.430 main 70 70 __________P___ -1 37.2127 123.430 7 12 5
1943205N22124 1943 45 WP MM NOT_NAMED 1943-07-31 21:00:00 NR 37.8000 123.500 main 96 __________O___ -1 37.8000 123.500 7 12 5

デジタル台風データ・検索

IBTrACS Databaseについて

本データベースは、米国NOAAが公開する1842年以降の世界の熱帯低気圧のベストトラックデータアーカイブInternational Best Track Archive for Climate Stewardship (IBTrACS)を、ウェブで閲覧しやすい形式に変換したものです。

最終更新日:2021-10-27